sensor_id;sensor_type;location;lat;lon;timestamp;temperature;humidity
1405;DHT22;697;51.114;6.542;2023-02-15T00:01:26;7.60;94.20
1405;DHT22;697;51.114;6.542;2023-02-15T00:03:53;7.60;94.20
1405;DHT22;697;51.114;6.542;2023-02-15T00:06:21;7.60;94.20
1405;DHT22;697;51.114;6.542;2023-02-15T00:08:48;7.60;94.10
1405;DHT22;697;51.114;6.542;2023-02-15T00:11:16;7.60;94.20
1405;DHT22;697;51.114;6.542;2023-02-15T00:14:03;7.50;94.20
1405;DHT22;697;51.114;6.542;2023-02-15T00:16:30;7.50;94.60
1405;DHT22;697;51.114;6.542;2023-02-15T00:18:57;7.40;94.40
1405;DHT22;697;51.114;6.542;2023-02-15T00:21:28;7.40;94.50
1405;DHT22;697;51.114;6.542;2023-02-15T00:23:56;7.40;94.40
1405;DHT22;697;51.114;6.542;2023-02-15T00:26:23;7.40;94.60
1405;DHT22;697;51.114;6.542;2023-02-15T00:28:50;7.40;94.60
1405;DHT22;697;51.114;6.542;2023-02-15T00:31:17;7.40;94.60
1405;DHT22;697;51.114;6.542;2023-02-15T00:33:44;7.30;94.50
1405;DHT22;697;51.114;6.542;2023-02-15T00:36:10;7.30;94.40
1405;DHT22;697;51.114;6.542;2023-02-15T00:38:39;7.30;94.60
1405;DHT22;697;51.114;6.542;2023-02-15T00:41:07;7.20;94.60
1405;DHT22;697;51.114;6.542;2023-02-15T00:43:34;7.20;94.50
1405;DHT22;697;51.114;6.542;2023-02-15T00:46:02;7.20;94.40
1405;DHT22;697;51.114;6.542;2023-02-15T00:48:29;7.20;94.40
1405;DHT22;697;51.114;6.542;2023-02-15T00:50:57;7.20;94.50
1405;DHT22;697;51.114;6.542;2023-02-15T00:53:25;7.20;94.60
1405;DHT22;697;51.114;6.542;2023-02-15T00:55:53;7.20;94.60
1405;DHT22;697;51.114;6.542;2023-02-15T00:58:20;7.10;94.40
1405;DHT22;697;51.114;6.542;2023-02-15T01:00:47;7.10;94.20
1405;DHT22;697;51.114;6.542;2023-02-15T01:03:16;7.10;94.10
1405;DHT22;697;51.114;6.542;2023-02-15T01:05:42;7.00;94.00
1405;DHT22;697;51.114;6.542;2023-02-15T01:08:09;7.00;94.10
1405;DHT22;697;51.114;6.542;2023-02-15T01:10:36;7.00;94.50
1405;DHT22;697;51.114;6.542;2023-02-15T01:13:04;7.00;94.10
1405;DHT22;697;51.114;6.542;2023-02-15T01:15:34;7.00;94.20
1405;DHT22;697;51.114;6.542;2023-02-15T01:18:01;7.00;94.20
1405;DHT22;697;51.114;6.542;2023-02-15T01:20:29;6.90;94.10
1405;DHT22;697;51.114;6.542;2023-02-15T01:22:57;6.90;94.10
1405;DHT22;697;51.114;6.542;2023-02-15T01:25:24;6.90;94.10
1405;DHT22;697;51.114;6.542;2023-02-15T01:27:51;6.80;94.00
1405;DHT22;697;51.114;6.542;2023-02-15T01:30:19;6.80;94.00
1405;DHT22;697;51.114;6.542;2023-02-15T01:32:46;6.80;94.10
1405;DHT22;697;51.114;6.542;2023-02-15T01:35:13;6.80;94.00
1405;DHT22;697;51.114;6.542;2023-02-15T01:37:39;6.80;94.10
1405;DHT22;697;51.114;6.542;2023-02-15T01:40:08;6.70;94.00
1405;DHT22;697;51.114;6.542;2023-02-15T01:42:38;6.70;94.20
1405;DHT22;697;51.114;6.542;2023-02-15T01:45:05;6.70;94.20
1405;DHT22;697;51.114;6.542;2023-02-15T01:47:44;6.60;94.30
1405;DHT22;697;51.114;6.542;2023-02-15T01:50:16;6.60;94.40
1405;DHT22;697;51.114;6.542;2023-02-15T01:52:48;6.50;94.60
1405;DHT22;697;51.114;6.542;2023-02-15T01:55:15;6.60;94.70
1405;DHT22;697;51.114;6.542;2023-02-15T01:57:43;6.50;94.80
1405;DHT22;697;51.114;6.542;2023-02-15T02:00:13;6.50;95.20
1405;DHT22;697;51.114;6.542;2023-02-15T02:02:45;6.50;95.00
1405;DHT22;697;51.114;6.542;2023-02-15T02:05:13;6.40;95.20
1405;DHT22;697;51.114;6.542;2023-02-15T02:07:42;6.40;95.20
1405;DHT22;697;51.114;6.542;2023-02-15T02:10:13;6.40;95.30
1405;DHT22;697;51.114;6.542;2023-02-15T02:12:42;6.40;95.40
1405;DHT22;697;51.114;6.542;2023-02-15T02:15:10;6.40;95.60
1405;DHT22;697;51.114;6.542;2023-02-15T02:17:46;6.40;95.60
1405;DHT22;697;51.114;6.542;2023-02-15T02:23:24;6.40;95.70
1405;DHT22;697;51.114;6.542;2023-02-15T02:34:44;6.30;95.80
1405;DHT22;697;51.114;6.542;2023-02-15T02:37:19;6.30;95.70
1405;DHT22;697;51.114;6.542;2023-02-15T02:39:55;6.30;95.60
1405;DHT22;697;51.114;6.542;2023-02-15T02:42:30;6.30;95.60
1405;DHT22;697;51.114;6.542;2023-02-15T02:45:03;6.30;95.60
1405;DHT22;697;51.114;6.542;2023-02-15T02:47:36;6.30;95.60
1405;DHT22;697;51.114;6.542;2023-02-15T02:50:08;6.20;95.60
1405;DHT22;697;51.114;6.542;2023-02-15T02:52:40;6.30;95.70
1405;DHT22;697;51.114;6.542;2023-02-15T02:55:11;6.20;95.60
1405;DHT22;697;51.114;6.542;2023-02-15T02:57:46;6.20;95.50
1405;DHT22;697;51.114;6.542;2023-02-15T03:00:14;6.20;95.60
1405;DHT22;697;51.114;6.542;2023-02-15T03:02:44;6.20;95.80
1405;DHT22;697;51.114;6.542;2023-02-15T03:05:15;6.20;95.70
1405;DHT22;697;51.114;6.542;2023-02-15T03:07:47;6.20;95.70
1405;DHT22;697;51.114;6.542;2023-02-15T03:10:18;6.20;95.60
1405;DHT22;697;51.114;6.542;2023-02-15T03:12:46;6.10;95.60
1405;DHT22;697;51.114;6.542;2023-02-15T03:15:16;6.10;95.70
1405;DHT22;697;51.114;6.542;2023-02-15T03:17:46;6.10;95.90
1405;DHT22;697;51.114;6.542;2023-02-15T03:20:18;6.10;95.90
1405;DHT22;697;51.114;6.542;2023-02-15T03:22:49;6.10;95.90
1405;DHT22;697;51.114;6.542;2023-02-15T03:25:20;6.10;95.90
1405;DHT22;697;51.114;6.542;2023-02-15T03:27:52;6.10;95.80
1405;DHT22;697;51.114;6.542;2023-02-15T03:30:22;6.10;95.70
1405;DHT22;697;51.114;6.542;2023-02-15T03:32:50;6.00;95.70
1405;DHT22;697;51.114;6.542;2023-02-15T03:35:22;6.00;95.80
1405;DHT22;697;51.114;6.542;2023-02-15T03:37:54;6.00;95.80
1405;DHT22;697;51.114;6.542;2023-02-15T03:40:28;6.00;95.70
1405;DHT22;697;51.114;6.542;2023-02-15T03:43:19;6.00;95.70
1405;DHT22;697;51.114;6.542;2023-02-15T03:45:51;5.90;95.80
1405;DHT22;697;51.114;6.542;2023-02-15T03:48:22;5.90;95.70
1405;DHT22;697;51.114;6.542;2023-02-15T03:50:53;5.90;95.70
1405;DHT22;697;51.114;6.542;2023-02-15T03:53:40;5.90;95.70
1405;DHT22;697;51.114;6.542;2023-02-15T03:56:07;5.80;95.70
1405;DHT22;697;51.114;6.542;2023-02-15T03:58:34;5.80;95.80
1405;DHT22;697;51.114;6.542;2023-02-15T04:01:25;5.80;95.80
1405;DHT22;697;51.114;6.542;2023-02-15T04:04:25;5.80;95.90
1405;DHT22;697;51.114;6.542;2023-02-15T04:06:54;5.80;95.80
1405;DHT22;697;51.114;6.542;2023-02-15T04:09:21;5.70;95.70
1405;DHT22;697;51.114;6.542;2023-02-15T04:12:05;5.80;95.80
1405;DHT22;697;51.114;6.542;2023-02-15T04:14:32;5.70;95.90
1405;DHT22;697;51.114;6.542;2023-02-15T04:17:16;5.70;96.00
1405;DHT22;697;51.114;6.542;2023-02-15T04:19:42;5.70;96.10
1405;DHT22;697;51.114;6.542;2023-02-15T04:22:28;5.70;96.10
1405;DHT22;697;51.114;6.542;2023-02-15T04:25:12;5.60;96.10
1405;DHT22;697;51.114;6.542;2023-02-15T04:27:40;5.70;96.20
1405;DHT22;697;51.114;6.542;2023-02-15T04:30:09;5.60;96.20
1405;DHT22;697;51.114;6.542;2023-02-15T04:32:36;5.60;96.20
1405;DHT22;697;51.114;6.542;2023-02-15T04:35:05;5.60;96.10
1405;DHT22;697;51.114;6.542;2023-02-15T04:37:33;5.60;96.10
1405;DHT22;697;51.114;6.542;2023-02-15T04:40:00;5.60;96.10
1405;DHT22;697;51.114;6.542;2023-02-15T04:42:27;5.60;96.10
1405;DHT22;697;51.114;6.542;2023-02-15T04:44:54;5.50;96.10
1405;DHT22;697;51.114;6.542;2023-02-15T04:47:20;5.50;96.10
1405;DHT22;697;51.114;6.542;2023-02-15T04:49:47;5.50;96.20
1405;DHT22;697;51.114;6.542;2023-02-15T04:52:14;5.50;96.30
1405;DHT22;697;51.114;6.542;2023-02-15T04:54:44;5.50;96.30
1405;DHT22;697;51.114;6.542;2023-02-15T04:57:11;5.50;96.40
1405;DHT22;697;51.114;6.542;2023-02-15T04:59:37;5.40;96.40
1405;DHT22;697;51.114;6.542;2023-02-15T05:02:04;5.40;96.40
1405;DHT22;697;51.114;6.542;2023-02-15T05:04:31;5.40;96.50
1405;DHT22;697;51.114;6.542;2023-02-15T05:06:58;5.40;96.50
1405;DHT22;697;51.114;6.542;2023-02-15T05:09:24;5.40;96.50
1405;DHT22;697;51.114;6.542;2023-02-15T05:11:52;5.40;96.50
1405;DHT22;697;51.114;6.542;2023-02-15T05:14:19;5.40;96.50
1405;DHT22;697;51.114;6.542;2023-02-15T05:16:46;5.40;96.50
1405;DHT22;697;51.114;6.542;2023-02-15T05:19:12;5.30;96.50
1405;DHT22;697;51.114;6.542;2023-02-15T05:21:39;5.30;96.50
1405;DHT22;697;51.114;6.542;2023-02-15T05:24:06;5.30;96.60
1405;DHT22;697;51.114;6.542;2023-02-15T05:26:55;5.30;96.60
1405;DHT22;697;51.114;6.542;2023-02-15T05:29:39;5.30;96.60
1405;DHT22;697;51.114;6.542;2023-02-15T05:32:06;5.30;96.60
1405;DHT22;697;51.114;6.542;2023-02-15T05:34:33;5.20;96.60
1405;DHT22;697;51.114;6.542;2023-02-15T05:37:00;5.20;96.60
1405;DHT22;697;51.114;6.542;2023-02-15T05:39:26;5.20;96.70
1405;DHT22;697;51.114;6.542;2023-02-15T05:41:57;5.30;96.80
1405;DHT22;697;51.114;6.542;2023-02-15T05:44:24;5.20;96.70
1405;DHT22;697;51.114;6.542;2023-02-15T05:46:51;5.20;96.70
1405;DHT22;697;51.114;6.542;2023-02-15T05:49:17;5.20;96.80
1405;DHT22;697;51.114;6.542;2023-02-15T05:51:44;5.20;97.00
1405;DHT22;697;51.114;6.542;2023-02-15T05:54:11;5.20;97.10
1405;DHT22;697;51.114;6.542;2023-02-15T05:56:38;5.20;97.10
1405;DHT22;697;51.114;6.542;2023-02-15T05:59:06;5.20;97.20
1405;DHT22;697;51.114;6.542;2023-02-15T06:01:32;5.10;97.20
1405;DHT22;697;51.114;6.542;2023-02-15T06:03:59;5.10;97.20
1405;DHT22;697;51.114;6.542;2023-02-15T06:06:26;5.10;97.30
1405;DHT22;697;51.114;6.542;2023-02-15T06:08:52;5.00;97.40
1405;DHT22;697;51.114;6.542;2023-02-15T06:11:19;5.10;97.50
1405;DHT22;697;51.114;6.542;2023-02-15T06:13:46;5.00;97.40
1405;DHT22;697;51.114;6.542;2023-02-15T06:16:14;5.00;97.50
1405;DHT22;697;51.114;6.542;2023-02-15T06:18:41;5.00;97.60
1405;DHT22;697;51.114;6.542;2023-02-15T06:21:08;4.90;97.60
1405;DHT22;697;51.114;6.542;2023-02-15T06:23:35;4.90;97.60
1405;DHT22;697;51.114;6.542;2023-02-15T06:26:01;4.90;97.90
1405;DHT22;697;51.114;6.542;2023-02-15T06:28:28;4.90;98.00
1405;DHT22;697;51.114;6.542;2023-02-15T06:30:55;4.90;98.00
1405;DHT22;697;51.114;6.542;2023-02-15T06:33:23;4.90;98.00
1405;DHT22;697;51.114;6.542;2023-02-15T06:35:50;4.80;98.00
1405;DHT22;697;51.114;6.542;2023-02-15T06:38:16;4.80;98.00
1405;DHT22;697;51.114;6.542;2023-02-15T06:40:43;4.90;98.00
1405;DHT22;697;51.114;6.542;2023-02-15T06:43:10;4.80;97.80
1405;DHT22;697;51.114;6.542;2023-02-15T06:45:36;4.80;97.80
1405;DHT22;697;51.114;6.542;2023-02-15T06:48:03;4.80;97.90
1405;DHT22;697;51.114;6.542;2023-02-15T06:50:34;4.80;97.90
1405;DHT22;697;51.114;6.542;2023-02-15T06:53:01;4.80;98.00
1405;DHT22;697;51.114;6.542;2023-02-15T06:55:28;4.80;98.00
1405;DHT22;697;51.114;6.542;2023-02-15T06:57:54;4.80;98.10
1405;DHT22;697;51.114;6.542;2023-02-15T07:00:21;4.80;98.00
1405;DHT22;697;51.114;6.542;2023-02-15T07:02:53;4.80;98.00
1405;DHT22;697;51.114;6.542;2023-02-15T07:05:21;4.80;98.10
1405;DHT22;697;51.114;6.542;2023-02-15T07:07:50;4.80;98.10
1405;DHT22;697;51.114;6.542;2023-02-15T07:10:16;4.80;98.10
1405;DHT22;697;51.114;6.542;2023-02-15T07:12:43;4.80;98.10
1405;DHT22;697;51.114;6.542;2023-02-15T07:15:12;4.80;98.10
1405;DHT22;697;51.114;6.542;2023-02-15T07:17:39;4.80;98.10
1405;DHT22;697;51.114;6.542;2023-02-15T07:20:08;4.90;98.20
1405;DHT22;697;51.114;6.542;2023-02-15T07:22:35;4.90;98.20
1405;DHT22;697;51.114;6.542;2023-02-15T07:25:04;4.90;98.10
1405;DHT22;697;51.114;6.542;2023-02-15T07:27:31;4.90;98.20
1405;DHT22;697;51.114;6.542;2023-02-15T07:29:58;4.90;98.20
1405;DHT22;697;51.114;6.542;2023-02-15T07:32:27;4.90;98.20
1405;DHT22;697;51.114;6.542;2023-02-15T07:34:54;5.00;98.20
1405;DHT22;697;51.114;6.542;2023-02-15T07:37:21;4.90;98.10
1405;DHT22;697;51.114;6.542;2023-02-15T07:39:47;5.00;98.40
1405;DHT22;697;51.114;6.542;2023-02-15T07:42:15;5.00;98.20
1405;DHT22;697;51.114;6.542;2023-02-15T07:44:43;5.00;98.10
1405;DHT22;697;51.114;6.542;2023-02-15T07:47:09;5.00;98.10
1405;DHT22;697;51.114;6.542;2023-02-15T07:49:37;5.00;98.10
1405;DHT22;697;51.114;6.542;2023-02-15T07:52:04;5.10;98.10
1405;DHT22;697;51.114;6.542;2023-02-15T07:54:31;5.10;98.20
1405;DHT22;697;51.114;6.542;2023-02-15T07:56:58;5.10;98.10
1405;DHT22;697;51.114;6.542;2023-02-15T07:59:26;5.20;98.10
1405;DHT22;697;51.114;6.542;2023-02-15T08:01:52;5.10;98.00
1405;DHT22;697;51.114;6.542;2023-02-15T08:04:21;5.10;98.00
1405;DHT22;697;51.114;6.542;2023-02-15T08:06:52;5.20;98.10
1405;DHT22;697;51.114;6.542;2023-02-15T08:09:20;5.20;98.00
1405;DHT22;697;51.114;6.542;2023-02-15T08:11:47;5.30;98.10
1405;DHT22;697;51.114;6.542;2023-02-15T08:14:15;5.30;98.00
1405;DHT22;697;51.114;6.542;2023-02-15T08:16:45;5.30;98.00
1405;DHT22;697;51.114;6.542;2023-02-15T08:19:13;5.30;98.00
1405;DHT22;697;51.114;6.542;2023-02-15T08:21:42;5.40;98.00
1405;DHT22;697;51.114;6.542;2023-02-15T08:24:10;5.40;98.00
1405;DHT22;697;51.114;6.542;2023-02-15T08:26:38;5.40;97.90
1405;DHT22;697;51.114;6.542;2023-02-15T08:29:05;5.50;97.90
1405;DHT22;697;51.114;6.542;2023-02-15T08:31:33;5.50;97.90
1405;DHT22;697;51.114;6.542;2023-02-15T08:34:02;5.50;97.90
1405;DHT22;697;51.114;6.542;2023-02-15T08:36:29;5.60;98.00
1405;DHT22;697;51.114;6.542;2023-02-15T08:38:58;5.60;97.80
1405;DHT22;697;51.114;6.542;2023-02-15T08:41:27;5.60;97.80
1405;DHT22;697;51.114;6.542;2023-02-15T08:43:56;5.70;97.80
1405;DHT22;697;51.114;6.542;2023-02-15T08:46:25;5.70;97.70
1405;DHT22;697;51.114;6.542;2023-02-15T08:48:52;5.80;97.80
1405;DHT22;697;51.114;6.542;2023-02-15T08:51:22;5.80;97.80
1405;DHT22;697;51.114;6.542;2023-02-15T08:53:51;5.80;97.70
1405;DHT22;697;51.114;6.542;2023-02-15T08:56:20;5.90;97.80
1405;DHT22;697;51.114;6.542;2023-02-15T08:58:47;6.00;97.80
1405;DHT22;697;51.114;6.542;2023-02-15T09:01:16;6.00;97.60
1405;DHT22;697;51.114;6.542;2023-02-15T09:03:46;6.00;97.70
1405;DHT22;697;51.114;6.542;2023-02-15T09:06:13;6.00;97.80
1405;DHT22;697;51.114;6.542;2023-02-15T09:08:41;6.10;97.80
1405;DHT22;697;51.114;6.542;2023-02-15T09:11:09;6.20;97.80
1405;DHT22;697;51.114;6.542;2023-02-15T09:13:37;6.20;97.60
1405;DHT22;697;51.114;6.542;2023-02-15T09:16:05;6.20;97.50
1405;DHT22;697;51.114;6.542;2023-02-15T09:18:34;6.30;97.30
1405;DHT22;697;51.114;6.542;2023-02-15T09:21:07;6.30;97.10
1405;DHT22;697;51.114;6.542;2023-02-15T09:23:34;6.30;97.20
1405;DHT22;697;51.114;6.542;2023-02-15T09:26:04;6.40;97.40
1405;DHT22;697;51.114;6.542;2023-02-15T09:28:31;6.50;97.30
1405;DHT22;697;51.114;6.542;2023-02-15T09:31:05;6.50;97.10
1405;DHT22;697;51.114;6.542;2023-02-15T09:33:33;6.60;97.10
1405;DHT22;697;51.114;6.542;2023-02-15T09:36:00;6.70;97.00
1405;DHT22;697;51.114;6.542;2023-02-15T09:38:27;6.80;96.80
1405;DHT22;697;51.114;6.542;2023-02-15T09:41:07;6.90;96.80
1405;DHT22;697;51.114;6.542;2023-02-15T09:43:42;6.90;96.50
1405;DHT22;697;51.114;6.542;2023-02-15T09:46:27;7.00;96.40
1405;DHT22;697;51.114;6.542;2023-02-15T09:49:01;7.20;96.40
1405;DHT22;697;51.114;6.542;2023-02-15T09:52:10;7.30;96.40
1405;DHT22;697;51.114;6.542;2023-02-15T09:54:57;7.40;96.20
1405;DHT22;697;51.114;6.542;2023-02-15T09:57:32;7.60;95.90
1405;DHT22;697;51.114;6.542;2023-02-15T10:00:10;7.70;95.70
1405;DHT22;697;51.114;6.542;2023-02-15T10:02:57;7.80;95.30
1405;DHT22;697;51.114;6.542;2023-02-15T10:05:40;7.90;95.10
1405;DHT22;697;51.114;6.542;2023-02-15T10:08:38;8.10;94.70
1405;DHT22;697;51.114;6.542;2023-02-15T10:11:14;8.20;94.50
1405;DHT22;697;51.114;6.542;2023-02-15T10:14:13;8.40;94.40
1405;DHT22;697;51.114;6.542;2023-02-15T10:16:47;8.40;94.10
1405;DHT22;697;51.114;6.542;2023-02-15T10:19:20;8.60;93.90
1405;DHT22;697;51.114;6.542;2023-02-15T10:21:58;8.70;93.50
1405;DHT22;697;51.114;6.542;2023-02-15T10:24:55;8.70;92.80
1405;DHT22;697;51.114;6.542;2023-02-15T10:27:26;8.80;93.00
1405;DHT22;697;51.114;6.542;2023-02-15T10:30:03;9.00;92.80
1405;DHT22;697;51.114;6.542;2023-02-15T10:32:39;9.10;92.70
1405;DHT22;697;51.114;6.542;2023-02-15T10:35:14;9.20;92.70
1405;DHT22;697;51.114;6.542;2023-02-15T10:38:04;9.40;92.60
1405;DHT22;697;51.114;6.542;2023-02-15T10:40:39;9.60;92.20
1405;DHT22;697;51.114;6.542;2023-02-15T10:43:20;9.90;92.00
1405;DHT22;697;51.114;6.542;2023-02-15T10:45:57;10.20;90.90
1405;DHT22;697;51.114;6.542;2023-02-15T10:48:52;10.40;90.30
1405;DHT22;697;51.114;6.542;2023-02-15T10:51:30;10.80;89.00
1405;DHT22;697;51.114;6.542;2023-02-15T10:54:13;11.30;86.80
1405;DHT22;697;51.114;6.542;2023-02-15T10:56:51;11.80;84.30
1405;DHT22;697;51.114;6.542;2023-02-15T10:59:34;12.30;81.20
1405;DHT22;697;51.114;6.542;2023-02-15T11:02:13;12.70;77.20
1405;DHT22;697;51.114;6.542;2023-02-15T11:04:58;13.00;75.60
1405;DHT22;697;51.114;6.542;2023-02-15T11:07:33;13.00;72.80
1405;DHT22;697;51.114;6.542;2023-02-15T11:10:11;12.90;72.40
1405;DHT22;697;51.114;6.542;2023-02-15T11:12:41;12.90;73.80
1405;DHT22;697;51.114;6.542;2023-02-15T11:15:15;13.00;73.90
1405;DHT22;697;51.114;6.542;2023-02-15T11:17:48;13.20;74.10
1405;DHT22;697;51.114;6.542;2023-02-15T11:20:20;13.40;73.90
1405;DHT22;697;51.114;6.542;2023-02-15T11:22:51;13.60;73.20
1405;DHT22;697;51.114;6.542;2023-02-15T11:25:24;14.00;71.70
1405;DHT22;697;51.114;6.542;2023-02-15T11:27:51;14.50;70.10
1405;DHT22;697;51.114;6.542;2023-02-15T11:30:22;15.10;66.30
1405;DHT22;697;51.114;6.542;2023-02-15T11:32:52;15.80;62.80
1405;DHT22;697;51.114;6.542;2023-02-15T11:35:24;16.40;59.00
1405;DHT22;697;51.114;6.542;2023-02-15T11:37:55;17.00;57.20
1405;DHT22;697;51.114;6.542;2023-02-15T11:40:25;17.60;55.30
1405;DHT22;697;51.114;6.542;2023-02-15T11:42:56;18.10;53.80
1405;DHT22;697;51.114;6.542;2023-02-15T11:45:27;18.40;49.80
1405;DHT22;697;51.114;6.542;2023-02-15T11:47:56;18.80;48.70
1405;DHT22;697;51.114;6.542;2023-02-15T11:50:25;19.10;48.60
1405;DHT22;697;51.114;6.542;2023-02-15T11:52:54;19.30;45.90
1405;DHT22;697;51.114;6.542;2023-02-15T11:55:23;19.60;46.20
1405;DHT22;697;51.114;6.542;2023-02-15T11:57:53;19.70;46.20
1405;DHT22;697;51.114;6.542;2023-02-15T12:00:29;20.00;46.30
1405;DHT22;697;51.114;6.542;2023-02-15T12:03:07;20.30;45.80
1405;DHT22;697;51.114;6.542;2023-02-15T12:05:37;20.80;45.00
1405;DHT22;697;51.114;6.542;2023-02-15T12:08:12;21.20;43.90
1405;DHT22;697;51.114;6.542;2023-02-15T12:10:42;21.50;42.50
1405;DHT22;697;51.114;6.542;2023-02-15T12:13:15;21.90;41.70
1405;DHT22;697;51.114;6.542;2023-02-15T12:15:44;22.20;40.70
1405;DHT22;697;51.114;6.542;2023-02-15T12:18:20;22.60;40.20
1405;DHT22;697;51.114;6.542;2023-02-15T12:20:49;22.90;39.00
1405;DHT22;697;51.114;6.542;2023-02-15T12:23:17;23.10;38.00
1405;DHT22;697;51.114;6.542;2023-02-15T12:25:50;23.40;38.30
1405;DHT22;697;51.114;6.542;2023-02-15T12:28:24;23.60;37.70
1405;DHT22;697;51.114;6.542;2023-02-15T12:30:53;23.90;37.20
1405;DHT22;697;51.114;6.542;2023-02-15T12:33:26;24.20;36.80
1405;DHT22;697;51.114;6.542;2023-02-15T12:35:57;24.40;35.90
1405;DHT22;697;51.114;6.542;2023-02-15T12:38:26;24.70;35.40
1405;DHT22;697;51.114;6.542;2023-02-15T12:40:58;24.90;34.50
1405;DHT22;697;51.114;6.542;2023-02-15T12:43:27;25.20;33.50
1405;DHT22;697;51.114;6.542;2023-02-15T12:46:14;25.30;33.30
1405;DHT22;697;51.114;6.542;2023-02-15T12:48:46;25.50;33.00
1405;DHT22;697;51.114;6.542;2023-02-15T12:51:14;25.70;32.80
1405;DHT22;697;51.114;6.542;2023-02-15T12:53:42;26.00;32.40
1405;DHT22;697;51.114;6.542;2023-02-15T12:56:10;26.20;31.80
1405;DHT22;697;51.114;6.542;2023-02-15T12:58:38;26.50;31.40
1405;DHT22;697;51.114;6.542;2023-02-15T13:01:13;26.70;31.10
1405;DHT22;697;51.114;6.542;2023-02-15T13:03:58;27.10;30.60
1405;DHT22;697;51.114;6.542;2023-02-15T13:06:25;27.40;30.20
1405;DHT22;697;51.114;6.542;2023-02-15T13:08:54;27.60;29.60
1405;DHT22;697;51.114;6.542;2023-02-15T13:11:25;27.90;29.40
1405;DHT22;697;51.114;6.542;2023-02-15T13:13:55;28.10;29.00
1405;DHT22;697;51.114;6.542;2023-02-15T13:16:30;28.20;28.60
1405;DHT22;697;51.114;6.542;2023-02-15T13:19:03;28.40;28.30
1405;DHT22;697;51.114;6.542;2023-02-15T13:21:33;28.50;28.10
1405;DHT22;697;51.114;6.542;2023-02-15T13:24:04;28.60;28.20
1405;DHT22;697;51.114;6.542;2023-02-15T13:26:32;28.60;27.50
1405;DHT22;697;51.114;6.542;2023-02-15T13:29:05;28.60;27.50
1405;DHT22;697;51.114;6.542;2023-02-15T13:31:34;28.60;27.90
1405;DHT22;697;51.114;6.542;2023-02-15T13:34:09;28.70;27.70
1405;DHT22;697;51.114;6.542;2023-02-15T13:36:43;28.80;27.00
1405;DHT22;697;51.114;6.542;2023-02-15T13:39:20;28.80;27.30
1405;DHT22;697;51.114;6.542;2023-02-15T13:41:56;28.80;27.30
1405;DHT22;697;51.114;6.542;2023-02-15T13:44:40;28.90;27.20
1405;DHT22;697;51.114;6.542;2023-02-15T13:47:17;29.00;27.40
1405;DHT22;697;51.114;6.542;2023-02-15T13:50:02;29.10;26.70
1405;DHT22;697;51.114;6.542;2023-02-15T13:52:34;29.10;26.70
1405;DHT22;697;51.114;6.542;2023-02-15T13:55:21;29.20;26.60
1405;DHT22;697;51.114;6.542;2023-02-15T13:58:18;29.30;26.50
1405;DHT22;697;51.114;6.542;2023-02-15T14:00:53;29.30;26.50
1405;DHT22;697;51.114;6.542;2023-02-15T14:03:50;29.30;26.60
1405;DHT22;697;51.114;6.542;2023-02-15T14:06:42;29.20;26.10
1405;DHT22;697;51.114;6.542;2023-02-15T14:09:18;29.00;26.50
1405;DHT22;697;51.114;6.542;2023-02-15T14:11:54;28.80;26.70
1405;DHT22;697;51.114;6.542;2023-02-15T14:14:34;28.50;26.70
1405;DHT22;697;51.114;6.542;2023-02-15T14:17:12;28.20;27.40
1405;DHT22;697;51.114;6.542;2023-02-15T14:19:45;27.70;27.60
1405;DHT22;697;51.114;6.542;2023-02-15T14:22:22;27.40;28.10
1405;DHT22;697;51.114;6.542;2023-02-15T14:25:00;27.10;28.50
1405;DHT22;697;51.114;6.542;2023-02-15T14:27:43;26.70;29.00
1405;DHT22;697;51.114;6.542;2023-02-15T14:30:14;26.30;29.60
1405;DHT22;697;51.114;6.542;2023-02-15T14:32:45;26.00;30.00
1405;DHT22;697;51.114;6.542;2023-02-15T14:35:15;25.70;30.40
1405;DHT22;697;51.114;6.542;2023-02-15T14:37:49;25.20;30.00
1405;DHT22;697;51.114;6.542;2023-02-15T14:40:26;24.90;31.20
1405;DHT22;697;51.114;6.542;2023-02-15T14:43:24;24.60;31.80
1405;DHT22;697;51.114;6.542;2023-02-15T14:45:56;24.30;32.40
1405;DHT22;697;51.114;6.542;2023-02-15T14:48:30;24.00;32.90
1405;DHT22;697;51.114;6.542;2023-02-15T14:50:57;23.70;33.30
1405;DHT22;697;51.114;6.542;2023-02-15T14:53:35;23.40;33.90
1405;DHT22;697;51.114;6.542;2023-02-15T14:56:22;23.10;34.80
1405;DHT22;697;51.114;6.542;2023-02-15T14:59:14;22.70;35.60
1405;DHT22;697;51.114;6.542;2023-02-15T15:01:42;22.20;35.70
1405;DHT22;697;51.114;6.542;2023-02-15T15:04:23;21.80;36.30
1405;DHT22;697;51.114;6.542;2023-02-15T15:06:59;21.50;37.10
1405;DHT22;697;51.114;6.542;2023-02-15T15:09:29;21.10;37.80
1405;DHT22;697;51.114;6.542;2023-02-15T15:12:14;20.80;38.60
1405;DHT22;697;51.114;6.542;2023-02-15T15:14:42;20.40;39.30
1405;DHT22;697;51.114;6.542;2023-02-15T15:17:15;20.10;39.80
1405;DHT22;697;51.114;6.542;2023-02-15T15:20:05;19.80;40.40
1405;DHT22;697;51.114;6.542;2023-02-15T15:22:39;19.50;40.80
1405;DHT22;697;51.114;6.542;2023-02-15T15:25:12;19.20;41.30
1405;DHT22;697;51.114;6.542;2023-02-15T15:28:00;19.00;41.90
1405;DHT22;697;51.114;6.542;2023-02-15T15:30:50;18.70;42.60
1405;DHT22;697;51.114;6.542;2023-02-15T15:36:32;18.30;43.80
1405;DHT22;697;51.114;6.542;2023-02-15T15:39:07;18.10;44.40
1405;DHT22;697;51.114;6.542;2023-02-15T15:41:41;17.90;44.80
1405;DHT22;697;51.114;6.542;2023-02-15T15:44:52;17.70;45.30
1405;DHT22;697;51.114;6.542;2023-02-15T15:47:34;17.60;46.00
1405;DHT22;697;51.114;6.542;2023-02-15T15:50:12;17.30;46.80
1405;DHT22;697;51.114;6.542;2023-02-15T15:52:41;17.20;47.10
1405;DHT22;697;51.114;6.542;2023-02-15T15:55:17;17.00;47.30
1405;DHT22;697;51.114;6.542;2023-02-15T15:57:46;16.90;47.60
1405;DHT22;697;51.114;6.542;2023-02-15T16:00:34;16.80;48.00
1405;DHT22;697;51.114;6.542;2023-02-15T16:03:02;16.60;48.30
1405;DHT22;697;51.114;6.542;2023-02-15T16:05:35;16.50;48.60
1405;DHT22;697;51.114;6.542;2023-02-15T16:08:02;16.40;49.10
1405;DHT22;697;51.114;6.542;2023-02-15T16:10:30;16.20;49.50
1405;DHT22;697;51.114;6.542;2023-02-15T16:12:59;16.00;49.90
1405;DHT22;697;51.114;6.542;2023-02-15T16:15:36;15.90;50.50
1405;DHT22;697;51.114;6.542;2023-02-15T16:18:12;15.80;51.10
1405;DHT22;697;51.114;6.542;2023-02-15T16:20:41;15.70;51.60
1405;DHT22;697;51.114;6.542;2023-02-15T16:23:20;15.60;52.10
1405;DHT22;697;51.114;6.542;2023-02-15T16:25:59;15.50;52.50
1405;DHT22;697;51.114;6.542;2023-02-15T16:28:31;15.40;52.80
1405;DHT22;697;51.114;6.542;2023-02-15T16:31:07;15.30;53.10
1405;DHT22;697;51.114;6.542;2023-02-15T16:33:38;15.20;53.50
1405;DHT22;697;51.114;6.542;2023-02-15T16:36:09;15.10;53.80
1405;DHT22;697;51.114;6.542;2023-02-15T16:39:07;15.00;54.10
1405;DHT22;697;51.114;6.542;2023-02-15T16:41:34;14.90;54.40
1405;DHT22;697;51.114;6.542;2023-02-15T16:44:06;14.80;54.70
1405;DHT22;697;51.114;6.542;2023-02-15T16:46:38;14.60;54.90
1405;DHT22;697;51.114;6.542;2023-02-15T16:49:11;14.40;55.20
1405;DHT22;697;51.114;6.542;2023-02-15T16:51:41;14.20;55.60
1405;DHT22;697;51.114;6.542;2023-02-15T16:54:16;14.00;56.10
1405;DHT22;697;51.114;6.542;2023-02-15T16:56:44;13.80;57.00
1405;DHT22;697;51.114;6.542;2023-02-15T16:59:19;13.70;57.70
1405;DHT22;697;51.114;6.542;2023-02-15T17:01:50;13.50;58.20
1405;DHT22;697;51.114;6.542;2023-02-15T17:04:27;13.40;58.90
1405;DHT22;697;51.114;6.542;2023-02-15T17:06:59;13.30;59.70
1405;DHT22;697;51.114;6.542;2023-02-15T17:09:26;13.30;60.90
1405;DHT22;697;51.114;6.542;2023-02-15T17:11:53;13.30;61.90
1405;DHT22;697;51.114;6.542;2023-02-15T17:14:20;13.20;62.50
1405;DHT22;697;51.114;6.542;2023-02-15T17:16:50;13.10;62.90